Estación Meteorológica Peña el Pijo (Robertgarden) [ 12/09/19 16:34:34 CET ]

Fecha Hora Presion(HPa) Temp (°C) Humedad % Rocio (°C) Viento ( m/s) Direccion Lluvia 1Hora(mm) Lluvia 24H(mm) LLuvia Total(mm)
2019-Aug-03 01:01:39 1011.100 19.4 64 12.4         344.18
2019-Aug-03 02:01:51 1011.100 17.8 68 11.8         344.18
2019-Aug-03 03:02:06 1010.800 16.8 70 11.3         344.18
2019-Aug-03 04:02:09 1010.500 15.6 73 10.8         344.18
2019-Aug-03 05:03:12 1010.200 15.5 73 10.7         344.18
2019-Aug-03 06:02:02 1010.100 14.9 73 10.1         344.18
2019-Aug-03 07:01:52 1010.300 14.4 72 9.4         344.18
2019-Aug-03 08:01:51 1010.400 14.8 72 9.8         344.18
2019-Aug-03 09:01:42 1010.600 21.4 58 12.8         344.18
2019-Aug-03 10:01:42 1010.500 26.5 42 12.5         344.18
2019-Aug-03 11:01:36 1010.200 30.6 37 14.2         344.18
2019-Aug-03 12:01:36 1010.200 31.1 36 14.2         344.18
2019-Aug-03 13:01:34 1010.200 32.1 39 16.3         344.18
2019-Aug-03 14:01:32 1010.200 35.6 35 17.7         344.18
2019-Aug-03 15:01:35 1009.800 34.4 35 16.6         344.18
2019-Aug-03 16:01:25 1009.500 34.9 34 16.6         344.18
2019-Aug-03 17:01:33 1008.800 31.9 37 15.3         344.18
2019-Aug-03 18:01:26 1009.900 20.5 68 14.4     17.09 17.09 361.27
2019-Aug-03 19:01:23 1009.400 19.9 83 16.9     2.07 19.16 363.34
2019-Aug-03 20:01:48 1009.000 22.8 79 19.0       19.16 363.34
2019-Aug-03 21:02:02 1008.800 20.6 81 17.2       19.16 363.34
2019-Aug-03 22:01:41 1009.300 19.6 84 16.8       19.16 363.34
2019-Aug-03 23:01:47 1010.100 19.0 86 16.6       19.16 363.34

Temperatura Máxima:35°    Temperatura Mínima:14°
Presión Máxima:1011.100 Hpa    Presión Mínima:1008.800 Hpa


Volver